sensor_id;sensor_type;location;lat;lon;timestamp;P1;durP1;ratioP1;P2;durP2;ratioP2
71253;SDS011;59019;47.638;18.966;2022-09-03T00:02:27;5.95;;;2.42;;
71253;SDS011;59019;47.638;18.966;2022-09-03T00:05:18;5.82;;;2.38;;
71253;SDS011;59019;47.638;18.966;2022-09-03T00:11:19;4.75;;;1.98;;
71253;SDS011;59019;47.638;18.966;2022-09-03T00:13:53;5.72;;;2.33;;
71253;SDS011;59019;47.638;18.966;2022-09-03T00:16:25;5.82;;;2.22;;
71253;SDS011;59019;47.638;18.966;2022-09-03T00:18:59;4.97;;;2.25;;
71253;SDS011;59019;47.638;18.966;2022-09-03T00:21:37;5.43;;;2.27;;
71253;SDS011;59019;47.638;18.966;2022-09-03T00:24:09;6.70;;;2.47;;
71253;SDS011;59019;47.638;18.966;2022-09-03T00:26:37;6.05;;;2.35;;
71253;SDS011;59019;47.638;18.966;2022-09-03T00:29:14;7.20;;;2.70;;
71253;SDS011;59019;47.638;18.966;2022-09-03T00:31:45;5.10;;;2.10;;
71253;SDS011;59019;47.638;18.966;2022-09-03T00:34:19;7.33;;;2.33;;
71253;SDS011;59019;47.638;18.966;2022-09-03T00:36:53;5.03;;;1.90;;
71253;SDS011;59019;47.638;18.966;2022-09-03T00:39:20;6.35;;;2.05;;
71253;SDS011;59019;47.638;18.966;2022-09-03T00:41:52;6.90;;;2.27;;
71253;SDS011;59019;47.638;18.966;2022-09-03T00:47:15;5.25;;;2.33;;
71253;SDS011;59019;47.638;18.966;2022-09-03T00:52:45;4.47;;;2.13;;
71253;SDS011;59019;47.638;18.966;2022-09-03T00:55:26;7.03;;;2.40;;
71253;SDS011;59019;47.638;18.966;2022-09-03T01:00:32;6.13;;;2.38;;
71253;SDS011;59019;47.638;18.966;2022-09-03T01:08:31;5.32;;;2.08;;
71253;SDS011;59019;47.638;18.966;2022-09-03T01:25:16;6.30;;;2.15;;
71253;SDS011;59019;47.638;18.966;2022-09-03T01:31:00;6.18;;;2.00;;
71253;SDS011;59019;47.638;18.966;2022-09-03T01:33:35;6.17;;;2.40;;
71253;SDS011;59019;47.638;18.966;2022-09-03T01:36:12;5.38;;;2.63;;
71253;SDS011;59019;47.638;18.966;2022-09-03T01:38:43;7.72;;;2.20;;
71253;SDS011;59019;47.638;18.966;2022-09-03T01:41:19;7.13;;;2.28;;
71253;SDS011;59019;47.638;18.966;2022-09-03T01:47:21;7.17;;;2.47;;
71253;SDS011;59019;47.638;18.966;2022-09-03T01:53:00;6.18;;;2.22;;
71253;SDS011;59019;47.638;18.966;2022-09-03T01:58:09;5.80;;;2.10;;
71253;SDS011;59019;47.638;18.966;2022-09-03T02:00:40;5.00;;;2.10;;
71253;SDS011;59019;47.638;18.966;2022-09-03T02:03:08;7.85;;;2.50;;
71253;SDS011;59019;47.638;18.966;2022-09-03T02:05:36;4.90;;;2.25;;
71253;SDS011;59019;47.638;18.966;2022-09-03T02:08:04;4.85;;;2.17;;
71253;SDS011;59019;47.638;18.966;2022-09-03T02:10:33;9.55;;;2.30;;
71253;SDS011;59019;47.638;18.966;2022-09-03T02:13:19;5.33;;;2.30;;
71253;SDS011;59019;47.638;18.966;2022-09-03T02:15:50;5.50;;;2.25;;
71253;SDS011;59019;47.638;18.966;2022-09-03T02:19:04;3.97;;;1.77;;
71253;SDS011;59019;47.638;18.966;2022-09-03T02:21:07;5.68;;;2.08;;
71253;SDS011;59019;47.638;18.966;2022-09-03T02:23:34;4.82;;;2.30;;
71253;SDS011;59019;47.638;18.966;2022-09-03T02:26:03;4.87;;;2.10;;
71253;SDS011;59019;47.638;18.966;2022-09-03T02:28:32;4.80;;;2.05;;
71253;SDS011;59019;47.638;18.966;2022-09-03T02:30:58;5.88;;;2.10;;
71253;SDS011;59019;47.638;18.966;2022-09-03T02:33:24;4.67;;;2.17;;
71253;SDS011;59019;47.638;18.966;2022-09-03T02:35:50;5.40;;;2.40;;
71253;SDS011;59019;47.638;18.966;2022-09-03T02:38:20;7.25;;;2.13;;
71253;SDS011;59019;47.638;18.966;2022-09-03T02:40:51;4.95;;;2.20;;
71253;SDS011;59019;47.638;18.966;2022-09-03T02:43:23;5.10;;;2.30;;
71253;SDS011;59019;47.638;18.966;2022-09-03T02:45:58;5.27;;;2.53;;
71253;SDS011;59019;47.638;18.966;2022-09-03T02:48:27;7.75;;;2.50;;
71253;SDS011;59019;47.638;18.966;2022-09-03T02:50:53;7.07;;;2.50;;
71253;SDS011;59019;47.638;18.966;2022-09-03T02:53:19;8.10;;;2.85;;
71253;SDS011;59019;47.638;18.966;2022-09-03T02:55:45;4.78;;;2.50;;
71253;SDS011;59019;47.638;18.966;2022-09-03T02:58:10;5.13;;;2.40;;
71253;SDS011;59019;47.638;18.966;2022-09-03T03:00:36;5.72;;;2.50;;
71253;SDS011;59019;47.638;18.966;2022-09-03T03:03:02;5.75;;;2.60;;
71253;SDS011;59019;47.638;18.966;2022-09-03T03:05:42;6.80;;;2.60;;
71253;SDS011;59019;47.638;18.966;2022-09-03T03:08:08;5.63;;;2.45;;
71253;SDS011;59019;47.638;18.966;2022-09-03T03:10:36;5.78;;;2.20;;
71253;SDS011;59019;47.638;18.966;2022-09-03T03:13:02;5.57;;;2.50;;
71253;SDS011;59019;47.638;18.966;2022-09-03T03:15:27;7.43;;;2.40;;
71253;SDS011;59019;47.638;18.966;2022-09-03T03:17:56;5.33;;;2.30;;
71253;SDS011;59019;47.638;18.966;2022-09-03T03:20:22;5.85;;;2.50;;
71253;SDS011;59019;47.638;18.966;2022-09-03T03:22:47;5.55;;;2.30;;
71253;SDS011;59019;47.638;18.966;2022-09-03T03:25:13;4.60;;;2.00;;
71253;SDS011;59019;47.638;18.966;2022-09-03T03:27:39;5.60;;;1.95;;
71253;SDS011;59019;47.638;18.966;2022-09-03T03:30:06;4.50;;;1.90;;
71253;SDS011;59019;47.638;18.966;2022-09-03T03:32:36;6.18;;;2.40;;
71253;SDS011;59019;47.638;18.966;2022-09-03T03:35:02;4.97;;;1.98;;
71253;SDS011;59019;47.638;18.966;2022-09-03T03:37:29;5.40;;;2.20;;
71253;SDS011;59019;47.638;18.966;2022-09-03T03:39:55;4.97;;;2.00;;
71253;SDS011;59019;47.638;18.966;2022-09-03T03:42:20;5.38;;;2.05;;
71253;SDS011;59019;47.638;18.966;2022-09-03T03:44:46;4.50;;;2.10;;
71253;SDS011;59019;47.638;18.966;2022-09-03T03:47:11;6.37;;;2.10;;
71253;SDS011;59019;47.638;18.966;2022-09-03T03:49:37;5.17;;;2.33;;
71253;SDS011;59019;47.638;18.966;2022-09-03T03:52:03;5.07;;;2.22;;
71253;SDS011;59019;47.638;18.966;2022-09-03T03:54:28;5.28;;;2.30;;
71253;SDS011;59019;47.638;18.966;2022-09-03T03:56:55;6.00;;;2.17;;
71253;SDS011;59019;47.638;18.966;2022-09-03T03:59:20;5.53;;;2.50;;
71253;SDS011;59019;47.638;18.966;2022-09-03T04:01:46;5.82;;;2.20;;
71253;SDS011;59019;47.638;18.966;2022-09-03T04:04:14;6.55;;;2.55;;
71253;SDS011;59019;47.638;18.966;2022-09-03T04:06:40;7.20;;;2.72;;
71253;SDS011;59019;47.638;18.966;2022-09-03T04:09:06;7.53;;;3.07;;
71253;SDS011;59019;47.638;18.966;2022-09-03T04:11:31;6.97;;;2.53;;
71253;SDS011;59019;47.638;18.966;2022-09-03T04:13:57;4.90;;;2.20;;
71253;SDS011;59019;47.638;18.966;2022-09-03T04:16:24;5.83;;;2.30;;
71253;SDS011;59019;47.638;18.966;2022-09-03T04:18:51;6.82;;;2.58;;
71253;SDS011;59019;47.638;18.966;2022-09-03T04:21:19;8.68;;;2.47;;
71253;SDS011;59019;47.638;18.966;2022-09-03T04:23:47;6.68;;;2.30;;
71253;SDS011;59019;47.638;18.966;2022-09-03T04:26:14;4.87;;;2.30;;
71253;SDS011;59019;47.638;18.966;2022-09-03T04:28:44;5.30;;;2.50;;
71253;SDS011;59019;47.638;18.966;2022-09-03T04:31:11;5.20;;;2.45;;
71253;SDS011;59019;47.638;18.966;2022-09-03T04:33:38;5.00;;;2.60;;
71253;SDS011;59019;47.638;18.966;2022-09-03T04:36:09;7.88;;;3.28;;
71253;SDS011;59019;47.638;18.966;2022-09-03T04:38:37;6.10;;;2.33;;
71253;SDS011;59019;47.638;18.966;2022-09-03T04:41:05;5.72;;;2.38;;
71253;SDS011;59019;47.638;18.966;2022-09-03T04:43:32;6.90;;;2.50;;
71253;SDS011;59019;47.638;18.966;2022-09-03T04:45:58;5.88;;;2.20;;
71253;SDS011;59019;47.638;18.966;2022-09-03T04:48:25;5.57;;;2.45;;
71253;SDS011;59019;47.638;18.966;2022-09-03T04:50:52;5.65;;;2.83;;
71253;SDS011;59019;47.638;18.966;2022-09-03T04:53:19;7.45;;;2.40;;
71253;SDS011;59019;47.638;18.966;2022-09-03T04:55:45;5.38;;;2.28;;
71253;SDS011;59019;47.638;18.966;2022-09-03T04:58:10;5.60;;;2.50;;
71253;SDS011;59019;47.638;18.966;2022-09-03T05:00:36;4.60;;;2.10;;
71253;SDS011;59019;47.638;18.966;2022-09-03T05:03:02;6.20;;;2.47;;
71253;SDS011;59019;47.638;18.966;2022-09-03T05:05:29;5.00;;;2.30;;
71253;SDS011;59019;47.638;18.966;2022-09-03T05:07:59;6.22;;;2.15;;
71253;SDS011;59019;47.638;18.966;2022-09-03T05:10:28;5.95;;;2.30;;
71253;SDS011;59019;47.638;18.966;2022-09-03T05:13:01;4.90;;;2.30;;
71253;SDS011;59019;47.638;18.966;2022-09-03T05:15:30;5.38;;;2.58;;
71253;SDS011;59019;47.638;18.966;2022-09-03T05:18:00;4.80;;;2.35;;
71253;SDS011;59019;47.638;18.966;2022-09-03T05:20:27;5.03;;;2.40;;
71253;SDS011;59019;47.638;18.966;2022-09-03T05:22:54;5.10;;;2.30;;
71253;SDS011;59019;47.638;18.966;2022-09-03T05:25:21;4.83;;;2.30;;
71253;SDS011;59019;47.638;18.966;2022-09-03T05:27:47;5.72;;;2.58;;
71253;SDS011;59019;47.638;18.966;2022-09-03T05:30:13;4.22;;;2.13;;
71253;SDS011;59019;47.638;18.966;2022-09-03T05:32:39;6.00;;;2.40;;
71253;SDS011;59019;47.638;18.966;2022-09-03T05:35:06;6.20;;;2.60;;
71253;SDS011;59019;47.638;18.966;2022-09-03T05:37:33;5.38;;;2.33;;
71253;SDS011;59019;47.638;18.966;2022-09-03T05:39:59;5.77;;;2.90;;
71253;SDS011;59019;47.638;18.966;2022-09-03T05:42:25;5.80;;;2.58;;
71253;SDS011;59019;47.638;18.966;2022-09-03T05:44:52;5.32;;;2.65;;
71253;SDS011;59019;47.638;18.966;2022-09-03T05:47:19;6.77;;;2.50;;
71253;SDS011;59019;47.638;18.966;2022-09-03T05:49:44;5.05;;;2.60;;
71253;SDS011;59019;47.638;18.966;2022-09-03T05:52:10;6.60;;;2.80;;
71253;SDS011;59019;47.638;18.966;2022-09-03T05:54:35;5.88;;;2.63;;
71253;SDS011;59019;47.638;18.966;2022-09-03T05:57:01;5.80;;;2.80;;
71253;SDS011;59019;47.638;18.966;2022-09-03T05:59:27;6.22;;;2.67;;
71253;SDS011;59019;47.638;18.966;2022-09-03T06:01:52;6.70;;;2.70;;
71253;SDS011;59019;47.638;18.966;2022-09-03T06:04:18;6.73;;;3.00;;
71253;SDS011;59019;47.638;18.966;2022-09-03T06:06:44;6.60;;;3.55;;
71253;SDS011;59019;47.638;18.966;2022-09-03T06:09:12;6.93;;;3.55;;
71253;SDS011;59019;47.638;18.966;2022-09-03T06:11:40;6.55;;;3.30;;
71253;SDS011;59019;47.638;18.966;2022-09-03T06:14:08;7.13;;;3.33;;
71253;SDS011;59019;47.638;18.966;2022-09-03T06:16:37;6.30;;;3.20;;
71253;SDS011;59019;47.638;18.966;2022-09-03T06:19:04;7.55;;;3.88;;
71253;SDS011;59019;47.638;18.966;2022-09-03T06:21:34;8.05;;;3.78;;
71253;SDS011;59019;47.638;18.966;2022-09-03T06:24:00;7.55;;;3.88;;
71253;SDS011;59019;47.638;18.966;2022-09-03T06:26:27;6.15;;;3.47;;
71253;SDS011;59019;47.638;18.966;2022-09-03T06:28:53;7.10;;;3.73;;
71253;SDS011;59019;47.638;18.966;2022-09-03T06:31:20;7.18;;;3.50;;
71253;SDS011;59019;47.638;18.966;2022-09-03T06:33:46;6.97;;;3.67;;
71253;SDS011;59019;47.638;18.966;2022-09-03T06:36:13;6.00;;;3.28;;
71253;SDS011;59019;47.638;18.966;2022-09-03T06:38:41;6.47;;;3.00;;
71253;SDS011;59019;47.638;18.966;2022-09-03T06:41:09;6.82;;;3.03;;
71253;SDS011;59019;47.638;18.966;2022-09-03T06:43:49;5.68;;;2.58;;
71253;SDS011;59019;47.638;18.966;2022-09-03T06:46:22;6.53;;;2.70;;
71253;SDS011;59019;47.638;18.966;2022-09-03T06:48:47;5.03;;;2.55;;
71253;SDS011;59019;47.638;18.966;2022-09-03T06:51:19;6.03;;;2.40;;
71253;SDS011;59019;47.638;18.966;2022-09-03T06:53:47;6.60;;;2.80;;
71253;SDS011;59019;47.638;18.966;2022-09-03T06:56:15;6.32;;;2.50;;
71253;SDS011;59019;47.638;18.966;2022-09-03T06:58:43;8.07;;;2.70;;
71253;SDS011;59019;47.638;18.966;2022-09-03T07:01:15;5.55;;;2.42;;
71253;SDS011;59019;47.638;18.966;2022-09-03T07:03:43;6.20;;;2.40;;
71253;SDS011;59019;47.638;18.966;2022-09-03T07:06:14;4.93;;;2.30;;
71253;SDS011;59019;47.638;18.966;2022-09-03T07:08:41;5.45;;;2.35;;
71253;SDS011;59019;47.638;18.966;2022-09-03T07:11:08;6.00;;;2.70;;
71253;SDS011;59019;47.638;18.966;2022-09-03T07:13:36;6.28;;;2.55;;
71253;SDS011;59019;47.638;18.966;2022-09-03T07:16:05;5.97;;;2.47;;
71253;SDS011;59019;47.638;18.966;2022-09-03T07:18:32;5.68;;;2.42;;
71253;SDS011;59019;47.638;18.966;2022-09-03T07:21:03;6.28;;;2.60;;
71253;SDS011;59019;47.638;18.966;2022-09-03T07:23:30;6.45;;;2.63;;
71253;SDS011;59019;47.638;18.966;2022-09-03T07:25:58;7.43;;;2.70;;
71253;SDS011;59019;47.638;18.966;2022-09-03T07:28:25;5.00;;;2.22;;
71253;SDS011;59019;47.638;18.966;2022-09-03T07:30:52;5.90;;;2.33;;
71253;SDS011;59019;47.638;18.966;2022-09-03T07:33:19;6.35;;;2.55;;
71253;SDS011;59019;47.638;18.966;2022-09-03T07:35:45;5.40;;;2.50;;
71253;SDS011;59019;47.638;18.966;2022-09-03T07:38:15;7.43;;;2.22;;
71253;SDS011;59019;47.638;18.966;2022-09-03T07:40:43;4.82;;;2.42;;
71253;SDS011;59019;47.638;18.966;2022-09-03T07:43:09;5.38;;;2.40;;
71253;SDS011;59019;47.638;18.966;2022-09-03T07:45:34;7.23;;;2.33;;
71253;SDS011;59019;47.638;18.966;2022-09-03T07:48:01;5.22;;;2.30;;
71253;SDS011;59019;47.638;18.966;2022-09-03T07:50:27;6.60;;;2.50;;
71253;SDS011;59019;47.638;18.966;2022-09-03T07:52:56;5.72;;;2.60;;
71253;SDS011;59019;47.638;18.966;2022-09-03T07:55:25;5.07;;;2.40;;
71253;SDS011;59019;47.638;18.966;2022-09-03T07:57:55;5.43;;;2.00;;
71253;SDS011;59019;47.638;18.966;2022-09-03T08:00:21;5.50;;;2.53;;
71253;SDS011;59019;47.638;18.966;2022-09-03T08:02:47;4.70;;;2.30;;
71253;SDS011;59019;47.638;18.966;2022-09-03T08:05:12;4.50;;;2.10;;
71253;SDS011;59019;47.638;18.966;2022-09-03T08:07:38;5.50;;;2.10;;
71253;SDS011;59019;47.638;18.966;2022-09-03T08:10:04;5.53;;;2.40;;
71253;SDS011;59019;47.638;18.966;2022-09-03T08:12:30;5.25;;;2.40;;
71253;SDS011;59019;47.638;18.966;2022-09-03T08:14:57;5.93;;;2.33;;
71253;SDS011;59019;47.638;18.966;2022-09-03T08:17:22;5.55;;;2.35;;
71253;SDS011;59019;47.638;18.966;2022-09-03T08:19:48;6.13;;;2.63;;
71253;SDS011;59019;47.638;18.966;2022-09-03T08:22:13;5.80;;;2.42;;
71253;SDS011;59019;47.638;18.966;2022-09-03T08:24:39;7.27;;;2.60;;
71253;SDS011;59019;47.638;18.966;2022-09-03T08:27:06;8.10;;;2.53;;
71253;SDS011;59019;47.638;18.966;2022-09-03T08:29:31;5.90;;;2.40;;
71253;SDS011;59019;47.638;18.966;2022-09-03T08:31:57;6.00;;;2.40;;
71253;SDS011;59019;47.638;18.966;2022-09-03T08:34:22;5.47;;;2.28;;
71253;SDS011;59019;47.638;18.966;2022-09-03T08:36:48;4.87;;;2.03;;
71253;SDS011;59019;47.638;18.966;2022-09-03T08:39:14;4.25;;;2.13;;
71253;SDS011;59019;47.638;18.966;2022-09-03T08:52:41;7.22;;;2.33;;
71253;SDS011;59019;47.638;18.966;2022-09-03T08:57:58;5.95;;;2.15;;
71253;SDS011;59019;47.638;18.966;2022-09-03T09:00:46;5.18;;;2.35;;
71253;SDS011;59019;47.638;18.966;2022-09-03T09:05:53;6.18;;;2.60;;
71253;SDS011;59019;47.638;18.966;2022-09-03T09:13:56;4.22;;;2.10;;
71253;SDS011;59019;47.638;18.966;2022-09-03T09:22:37;6.25;;;2.38;;
71253;SDS011;59019;47.638;18.966;2022-09-03T09:25:00;5.10;;;2.30;;
71253;SDS011;59019;47.638;18.966;2022-09-03T09:27:30;7.65;;;2.30;;
71253;SDS011;59019;47.638;18.966;2022-09-03T09:29:57;5.20;;;2.10;;
71253;SDS011;59019;47.638;18.966;2022-09-03T09:32:26;5.47;;;2.15;;
71253;SDS011;59019;47.638;18.966;2022-09-03T09:34:52;6.20;;;1.90;;
71253;SDS011;59019;47.638;18.966;2022-09-03T09:37:19;4.55;;;2.00;;
71253;SDS011;59019;47.638;18.966;2022-09-03T09:39:55;4.78;;;2.15;;
71253;SDS011;59019;47.638;18.966;2022-09-03T09:42:23;6.35;;;2.30;;
71253;SDS011;59019;47.638;18.966;2022-09-03T09:44:49;4.90;;;2.10;;
71253;SDS011;59019;47.638;18.966;2022-09-03T09:47:19;5.85;;;2.15;;
71253;SDS011;59019;47.638;18.966;2022-09-03T09:50:00;7.45;;;2.50;;
71253;SDS011;59019;47.638;18.966;2022-09-03T09:52:28;4.85;;;2.22;;
71253;SDS011;59019;47.638;18.966;2022-09-03T09:55:09;4.65;;;2.00;;
71253;SDS011;59019;47.638;18.966;2022-09-03T09:57:43;5.25;;;2.17;;
71253;SDS011;59019;47.638;18.966;2022-09-03T10:00:10;5.22;;;1.95;;
71253;SDS011;59019;47.638;18.966;2022-09-03T10:02:37;3.65;;;1.70;;
71253;SDS011;59019;47.638;18.966;2022-09-03T10:08:05;4.37;;;1.97;;
71253;SDS011;59019;47.638;18.966;2022-09-03T10:10:44;4.97;;;2.38;;
71253;SDS011;59019;47.638;18.966;2022-09-03T10:15:45;4.97;;;1.90;;
71253;SDS011;59019;47.638;18.966;2022-09-03T10:24:18;4.38;;;1.88;;
71253;SDS011;59019;47.638;18.966;2022-09-03T10:26:59;5.13;;;1.85;;
71253;SDS011;59019;47.638;18.966;2022-09-03T10:29:25;6.00;;;2.03;;
71253;SDS011;59019;47.638;18.966;2022-09-03T10:34:43;4.35;;;1.90;;
71253;SDS011;59019;47.638;18.966;2022-09-03T10:42:42;3.60;;;1.40;;
71253;SDS011;59019;47.638;18.966;2022-09-03T10:53:27;3.63;;;1.50;;
71253;SDS011;59019;47.638;18.966;2022-09-03T11:01:26;5.03;;;1.70;;
71253;SDS011;59019;47.638;18.966;2022-09-03T11:04:33;4.47;;;1.75;;
71253;SDS011;59019;47.638;18.966;2022-09-03T11:07:09;4.75;;;1.60;;
71253;SDS011;59019;47.638;18.966;2022-09-03T11:09:38;3.65;;;1.50;;
71253;SDS011;59019;47.638;18.966;2022-09-03T11:12:18;3.87;;;1.47;;
71253;SDS011;59019;47.638;18.966;2022-09-03T11:14:48;3.92;;;1.58;;
71253;SDS011;59019;47.638;18.966;2022-09-03T11:22:27;3.50;;;1.40;;
71253;SDS011;59019;47.638;18.966;2022-09-03T11:24:55;3.50;;;1.27;;
71253;SDS011;59019;47.638;18.966;2022-09-03T11:27:31;4.25;;;1.23;;
71253;SDS011;59019;47.638;18.966;2022-09-03T11:30:09;3.72;;;1.40;;
71253;SDS011;59019;47.638;18.966;2022-09-03T11:38:02;3.60;;;1.58;;
71253;SDS011;59019;47.638;18.966;2022-09-03T11:45:48;5.47;;;1.33;;
71253;SDS011;59019;47.638;18.966;2022-09-03T11:49:07;3.88;;;1.42;;
71253;SDS011;59019;47.638;18.966;2022-09-03T11:51:16;2.90;;;1.30;;
71253;SDS011;59019;47.638;18.966;2022-09-03T11:53:52;3.87;;;1.33;;
71253;SDS011;59019;47.638;18.966;2022-09-03T11:56:24;4.22;;;1.40;;
71253;SDS011;59019;47.638;18.966;2022-09-03T12:01:41;4.55;;;1.65;;
71253;SDS011;59019;47.638;18.966;2022-09-03T12:04:17;4.82;;;1.60;;
71253;SDS011;59019;47.638;18.966;2022-09-03T12:07:05;3.93;;;1.40;;
71253;SDS011;59019;47.638;18.966;2022-09-03T12:09:42;3.67;;;1.60;;
71253;SDS011;59019;47.638;18.966;2022-09-03T12:18:35;4.40;;;1.67;;
71253;SDS011;59019;47.638;18.966;2022-09-03T12:21:05;4.47;;;1.63;;
71253;SDS011;59019;47.638;18.966;2022-09-03T12:26:19;5.05;;;1.55;;
71253;SDS011;59019;47.638;18.966;2022-09-03T12:28:53;3.97;;;1.30;;
71253;SDS011;59019;47.638;18.966;2022-09-03T12:31:22;3.72;;;1.58;;
71253;SDS011;59019;47.638;18.966;2022-09-03T12:33:51;4.93;;;1.93;;
71253;SDS011;59019;47.638;18.966;2022-09-03T12:36:26;5.15;;;1.55;;
71253;SDS011;59019;47.638;18.966;2022-09-03T12:39:11;5.85;;;1.60;;
71253;SDS011;59019;47.638;18.966;2022-09-03T12:41:37;4.82;;;1.58;;
71253;SDS011;59019;47.638;18.966;2022-09-03T12:44:03;5.37;;;1.43;;
71253;SDS011;59019;47.638;18.966;2022-09-03T12:46:30;4.78;;;1.60;;
71253;SDS011;59019;47.638;18.966;2022-09-03T12:49:01;3.90;;;1.55;;
71253;SDS011;59019;47.638;18.966;2022-09-03T12:51:37;7.93;;;1.70;;
71253;SDS011;59019;47.638;18.966;2022-09-03T12:54:05;4.05;;;1.48;;
71253;SDS011;59019;47.638;18.966;2022-09-03T12:56:38;4.55;;;2.00;;
71253;SDS011;59019;47.638;18.966;2022-09-03T12:59:05;7.07;;;2.10;;
71253;SDS011;59019;47.638;18.966;2022-09-03T13:01:43;4.22;;;1.90;;
71253;SDS011;59019;47.638;18.966;2022-09-03T13:04:23;4.37;;;1.67;;
71253;SDS011;59019;47.638;18.966;2022-09-03T13:07:02;4.53;;;1.35;;
71253;SDS011;59019;47.638;18.966;2022-09-03T13:09:46;4.03;;;1.40;;
71253;SDS011;59019;47.638;18.966;2022-09-03T13:12:20;5.32;;;1.38;;
71253;SDS011;59019;47.638;18.966;2022-09-03T13:14:57;5.00;;;1.40;;
71253;SDS011;59019;47.638;18.966;2022-09-03T13:20:20;5.35;;;1.70;;
71253;SDS011;59019;47.638;18.966;2022-09-03T13:23:05;4.28;;;1.70;;
71253;SDS011;59019;47.638;18.966;2022-09-03T13:28:39;4.95;;;1.65;;
71253;SDS011;59019;47.638;18.966;2022-09-03T13:34:06;3.55;;;1.50;;
71253;SDS011;59019;47.638;18.966;2022-09-03T13:36:57;3.17;;;1.33;;
71253;SDS011;59019;47.638;18.966;2022-09-03T13:39:53;3.67;;;1.30;;
71253;SDS011;59019;47.638;18.966;2022-09-03T13:42:40;3.45;;;1.48;;
71253;SDS011;59019;47.638;18.966;2022-09-03T13:48:20;4.88;;;1.70;;
71253;SDS011;59019;47.638;18.966;2022-09-03T13:56:35;3.50;;;1.50;;
71253;SDS011;59019;47.638;18.966;2022-09-03T14:00:08;3.20;;;1.20;;
71253;SDS011;59019;47.638;18.966;2022-09-03T14:08:04;4.03;;;1.30;;
71253;SDS011;59019;47.638;18.966;2022-09-03T14:22:28;5.07;;;1.30;;
71253;SDS011;59019;47.638;18.966;2022-09-03T14:25:00;3.63;;;1.50;;
71253;SDS011;59019;47.638;18.966;2022-09-03T14:27:30;3.37;;;1.40;;
71253;SDS011;59019;47.638;18.966;2022-09-03T14:35:38;4.55;;;1.40;;
71253;SDS011;59019;47.638;18.966;2022-09-03T14:38:22;3.30;;;1.40;;
71253;SDS011;59019;47.638;18.966;2022-09-03T14:40:56;3.13;;;1.27;;
71253;SDS011;59019;47.638;18.966;2022-09-03T14:46:47;4.25;;;1.52;;
71253;SDS011;59019;47.638;18.966;2022-09-03T15:01:02;4.63;;;1.40;;
71253;SDS011;59019;47.638;18.966;2022-09-03T15:06:57;5.68;;;1.38;;
71253;SDS011;59019;47.638;18.966;2022-09-03T15:10:03;3.17;;;1.30;;
71253;SDS011;59019;47.638;18.966;2022-09-03T15:12:45;3.20;;;1.30;;
71253;SDS011;59019;47.638;18.966;2022-09-03T15:15:32;2.85;;;1.13;;
71253;SDS011;59019;47.638;18.966;2022-09-03T15:29:16;3.00;;;1.10;;
71253;SDS011;59019;47.638;18.966;2022-09-03T15:37:29;3.47;;;1.10;;
71253;SDS011;59019;47.638;18.966;2022-09-03T15:40:04;5.22;;;1.10;;
71253;SDS011;59019;47.638;18.966;2022-09-03T15:42:35;3.95;;;1.27;;
71253;SDS011;59019;47.638;18.966;2022-09-03T15:45:02;3.53;;;1.30;;
71253;SDS011;59019;47.638;18.966;2022-09-03T15:55:30;4.10;;;1.08;;
71253;SDS011;59019;47.638;18.966;2022-09-03T16:00:56;3.60;;;1.20;;
71253;SDS011;59019;47.638;18.966;2022-09-03T16:06:37;3.05;;;1.20;;
71253;SDS011;59019;47.638;18.966;2022-09-03T16:09:29;3.40;;;1.10;;
71253;SDS011;59019;47.638;18.966;2022-09-03T16:14:49;3.60;;;1.20;;
71253;SDS011;59019;47.638;18.966;2022-09-03T16:25:21;3.83;;;1.27;;
71253;SDS011;59019;47.638;18.966;2022-09-03T16:28:26;3.63;;;1.25;;
71253;SDS011;59019;47.638;18.966;2022-09-03T16:31:05;4.35;;;1.20;;
71253;SDS011;59019;47.638;18.966;2022-09-03T16:41:45;3.83;;;1.50;;
71253;SDS011;59019;47.638;18.966;2022-09-03T16:50:44;6.57;;;1.40;;
71253;SDS011;59019;47.638;18.966;2022-09-03T17:21:08;4.32;;;1.42;;
71253;SDS011;59019;47.638;18.966;2022-09-03T17:42:18;9.05;;;1.85;;
71253;SDS011;59019;47.638;18.966;2022-09-03T17:56:42;5.68;;;2.70;;
71253;SDS011;59019;47.638;18.966;2022-09-03T17:59:35;6.00;;;2.73;;
71253;SDS011;59019;47.638;18.966;2022-09-03T18:18:18;5.93;;;2.10;;
71253;SDS011;59019;47.638;18.966;2022-09-03T18:20:51;7.20;;;2.03;;
71253;SDS011;59019;47.638;18.966;2022-09-03T18:23:45;6.95;;;1.95;;
71253;SDS011;59019;47.638;18.966;2022-09-03T18:26:35;4.20;;;1.80;;
71253;SDS011;59019;47.638;18.966;2022-09-03T18:29:46;7.55;;;2.10;;
71253;SDS011;59019;47.638;18.966;2022-09-03T18:32:36;4.75;;;1.80;;
71253;SDS011;59019;47.638;18.966;2022-09-03T18:35:21;4.70;;;1.70;;
71253;SDS011;59019;47.638;18.966;2022-09-03T18:38:07;5.60;;;1.88;;
71253;SDS011;59019;47.638;18.966;2022-09-03T18:41:05;5.47;;;1.90;;
71253;SDS011;59019;47.638;18.966;2022-09-03T18:44:27;4.60;;;1.85;;
71253;SDS011;59019;47.638;18.966;2022-09-03T18:56:55;4.27;;;1.70;;
71253;SDS011;59019;47.638;18.966;2022-09-03T19:06:16;4.70;;;1.73;;
71253;SDS011;59019;47.638;18.966;2022-09-03T19:14:57;6.07;;;2.22;;
71253;SDS011;59019;47.638;18.966;2022-09-03T19:24:20;5.18;;;2.50;;
71253;SDS011;59019;47.638;18.966;2022-09-03T19:30:20;6.13;;;1.98;;
71253;SDS011;59019;47.638;18.966;2022-09-03T19:33:12;4.63;;;1.90;;
71253;SDS011;59019;47.638;18.966;2022-09-03T19:36:35;5.15;;;1.83;;
71253;SDS011;59019;47.638;18.966;2022-09-03T19:39:29;4.25;;;2.22;;
71253;SDS011;59019;47.638;18.966;2022-09-03T19:42:30;7.13;;;2.17;;
71253;SDS011;59019;47.638;18.966;2022-09-03T19:51:08;6.60;;;2.45;;
71253;SDS011;59019;47.638;18.966;2022-09-03T19:53:57;5.30;;;2.00;;
71253;SDS011;59019;47.638;18.966;2022-09-03T19:56:45;4.80;;;2.00;;
71253;SDS011;59019;47.638;18.966;2022-09-03T19:59:33;4.00;;;2.08;;
71253;SDS011;59019;47.638;18.966;2022-09-03T20:02:22;5.32;;;2.00;;
71253;SDS011;59019;47.638;18.966;2022-09-03T20:05:06;5.05;;;2.00;;
71253;SDS011;59019;47.638;18.966;2022-09-03T20:07:56;6.60;;;2.38;;
71253;SDS011;59019;47.638;18.966;2022-09-03T20:10:42;4.30;;;1.93;;
71253;SDS011;59019;47.638;18.966;2022-09-03T20:13:16;5.47;;;2.10;;
71253;SDS011;59019;47.638;18.966;2022-09-03T20:24:02;6.13;;;2.57;;
71253;SDS011;59019;47.638;18.966;2022-09-03T20:29:38;5.68;;;2.22;;
71253;SDS011;59019;47.638;18.966;2022-09-03T20:35:13;5.68;;;2.25;;
71253;SDS011;59019;47.638;18.966;2022-09-03T20:38:04;7.00;;;2.40;;
71253;SDS011;59019;47.638;18.966;2022-09-03T20:48:59;4.50;;;2.05;;
71253;SDS011;59019;47.638;18.966;2022-09-03T20:51:35;11.33;;;3.07;;
71253;SDS011;59019;47.638;18.966;2022-09-03T20:54:11;5.72;;;2.38;;
71253;SDS011;59019;47.638;18.966;2022-09-03T20:59:32;8.32;;;2.80;;
71253;SDS011;59019;47.638;18.966;2022-09-03T21:13:05;4.90;;;2.42;;
71253;SDS011;59019;47.638;18.966;2022-09-03T21:23:35;5.78;;;2.40;;
71253;SDS011;59019;47.638;18.966;2022-09-03T21:28:38;4.20;;;2.10;;
71253;SDS011;59019;47.638;18.966;2022-09-03T21:33:48;4.32;;;2.22;;
71253;SDS011;59019;47.638;18.966;2022-09-03T21:38:49;5.00;;;2.63;;
71253;SDS011;59019;47.638;18.966;2022-09-03T21:41:31;5.95;;;2.58;;
71253;SDS011;59019;47.638;18.966;2022-09-03T21:44:04;4.70;;;2.50;;
71253;SDS011;59019;47.638;18.966;2022-09-03T21:46:36;5.90;;;2.95;;
71253;SDS011;59019;47.638;18.966;2022-09-03T21:49:11;5.13;;;2.65;;
71253;SDS011;59019;47.638;18.966;2022-09-03T21:51:43;5.47;;;2.35;;
71253;SDS011;59019;47.638;18.966;2022-09-03T21:54:17;6.32;;;2.80;;
71253;SDS011;59019;47.638;18.966;2022-09-03T22:02:31;4.93;;;2.65;;
71253;SDS011;59019;47.638;18.966;2022-09-03T22:04:57;5.47;;;2.55;;